createdAt,value
2023-01-02T00:00:45.850Z,16.13
2023-01-02T00:03:14.934Z,15.57
2023-01-02T00:05:42.537Z,15.70
2023-01-02T00:08:10.071Z,17.30
2023-01-02T00:10:37.684Z,17.20
2023-01-02T00:13:05.279Z,16.57
2023-01-02T00:15:33.203Z,23.03
2023-01-02T00:18:00.684Z,24.83
2023-01-02T00:20:29.547Z,23.80
2023-01-02T00:22:57.054Z,19.90
2023-01-02T00:25:24.600Z,17.40
2023-01-02T00:27:52.107Z,16.83
2023-01-02T00:30:19.749Z,17.00
2023-01-02T00:32:47.244Z,17.40
2023-01-02T00:35:14.963Z,17.50
2023-01-02T00:37:43.807Z,16.87
2023-01-02T00:40:13.730Z,16.90
2023-01-02T00:42:41.484Z,16.60
2023-01-02T00:45:10.956Z,16.67
2023-01-02T00:47:38.508Z,16.77
2023-01-02T00:50:07.320Z,16.90
2023-01-02T00:52:34.883Z,16.97
2023-01-02T00:55:03.886Z,18.60
2023-01-02T00:57:31.657Z,18.27
2023-01-02T00:59:59.149Z,20.57
2023-01-02T01:02:26.775Z,19.80
2023-01-02T01:04:54.523Z,19.77
2023-01-02T01:07:22.044Z,19.00
2023-01-02T01:09:49.555Z,17.40
2023-01-02T01:12:18.414Z,17.17
2023-01-02T01:14:45.938Z,17.40
2023-01-02T01:17:13.457Z,17.23
2023-01-02T01:19:40.972Z,17.33
2023-01-02T01:22:08.518Z,22.77
2023-01-02T01:24:36.066Z,17.97
2023-01-02T01:27:03.573Z,19.27
2023-01-02T01:29:32.430Z,19.83
2023-01-02T01:31:59.998Z,18.40
2023-01-02T01:34:27.632Z,17.40
2023-01-02T01:36:55.138Z,17.83
2023-01-02T01:39:22.715Z,17.73
2023-01-02T01:41:50.218Z,18.60
2023-01-02T01:44:43.786Z,16.47
2023-01-02T01:47:19.675Z,16.60
2023-01-02T01:49:47.924Z,18.37
2023-01-02T01:52:18.650Z,17.27
2023-01-02T01:54:52.061Z,17.33
2023-01-02T01:57:24.426Z,19.53
2023-01-02T01:59:53.875Z,18.93
2023-01-02T02:02:24.036Z,19.07
2023-01-02T02:04:52.327Z,21.13
2023-01-02T02:07:20.171Z,20.33
2023-01-02T02:09:52.603Z,20.33
2023-01-02T02:12:25.970Z,19.97
2023-01-02T02:14:56.800Z,20.03
2023-01-02T02:17:34.594Z,17.97
2023-01-02T02:20:31.866Z,20.07
2023-01-02T02:23:41.064Z,20.27
2023-01-02T02:26:51.986Z,19.77
2023-01-02T02:29:52.498Z,21.43
2023-01-02T02:32:26.858Z,20.37
2023-01-02T02:35:01.178Z,20.07
2023-01-02T02:37:38.218Z,21.20
2023-01-02T02:40:18.015Z,22.03
2023-01-02T02:42:56.764Z,25.43
2023-01-02T02:45:37.746Z,26.57
2023-01-02T02:48:13.519Z,25.33
2023-01-02T02:50:47.208Z,27.13
2023-01-02T02:53:21.370Z,25.87
2023-01-02T02:55:51.839Z,26.40
2023-01-02T02:58:21.751Z,27.07
2023-01-02T03:00:50.741Z,25.23
2023-01-02T03:03:19.782Z,25.57
2023-01-02T03:06:04.516Z,24.03
2023-01-02T03:08:40.492Z,24.30
2023-01-02T03:11:08.288Z,27.10
2023-01-02T03:13:42.549Z,27.93
2023-01-02T03:16:14.142Z,27.30
2023-01-02T03:18:52.734Z,25.33
2023-01-02T03:21:30.943Z,26.77
2023-01-02T03:24:01.940Z,28.23
2023-01-02T03:26:32.452Z,27.93
2023-01-02T03:29:05.237Z,27.40
2023-01-02T03:31:39.987Z,29.23
2023-01-02T03:34:11.306Z,28.87
2023-01-02T03:36:42.273Z,28.73
2023-01-02T03:39:14.160Z,23.17
2023-01-02T03:41:45.745Z,22.23
2023-01-02T03:44:15.463Z,24.07
2023-01-02T03:46:48.933Z,25.30
2023-01-02T03:49:23.175Z,30.53
2023-01-02T03:51:50.822Z,26.50
2023-01-02T03:54:19.672Z,28.20
2023-01-02T03:56:57.510Z,30.17
2023-01-02T03:59:30.673Z,34.53
2023-01-02T04:02:05.275Z,33.23
2023-01-02T04:04:43.062Z,36.33
2023-01-02T04:07:19.696Z,32.47
2023-01-02T04:09:50.467Z,37.57
2023-01-02T04:12:21.747Z,31.87
2023-01-02T04:14:53.126Z,33.63
2023-01-02T04:17:25.375Z,36.67
2023-01-02T04:19:56.435Z,38.23
2023-01-02T04:22:29.470Z,38.37
2023-01-02T04:25:02.528Z,39.20
2023-01-02T04:27:34.696Z,38.57
2023-01-02T04:30:02.837Z,38.13
2023-01-02T04:32:36.405Z,37.83
2023-01-02T04:35:09.052Z,38.10
2023-01-02T04:37:39.203Z,39.87
2023-01-02T04:40:12.062Z,40.27
2023-01-02T04:42:39.578Z,44.00
2023-01-02T04:45:08.081Z,44.93
2023-01-02T04:47:36.932Z,41.57
2023-01-02T04:50:04.620Z,42.10
2023-01-02T04:52:37.001Z,40.00
2023-01-02T04:55:05.336Z,33.90
2023-01-02T04:57:32.926Z,35.00
2023-01-02T05:00:00.489Z,40.20
2023-01-02T05:02:28.836Z,43.83
2023-01-02T05:04:57.737Z,41.90
2023-01-02T05:07:25.253Z,43.53
2023-01-02T05:09:52.716Z,44.27
2023-01-02T05:12:20.191Z,45.93
2023-01-02T05:14:47.682Z,49.03
2023-01-02T05:17:15.177Z,53.93
2023-01-02T05:19:42.746Z,54.27
2023-01-02T05:22:31.337Z,59.93
2023-01-02T05:24:58.902Z,64.50
2023-01-02T05:27:26.433Z,61.97
2023-01-02T05:29:53.938Z,59.03
2023-01-02T05:32:21.425Z,58.00
2023-01-02T05:34:48.914Z,53.93
2023-01-02T05:37:17.748Z,45.60
2023-01-02T05:39:45.254Z,46.80
2023-01-02T05:42:12.780Z,47.93
2023-01-02T05:44:40.273Z,58.17
2023-01-02T05:47:10.852Z,61.87
2023-01-02T05:49:40.930Z,64.93
2023-01-02T05:52:08.439Z,63.87
2023-01-02T05:54:37.251Z,59.53
2023-01-02T05:57:04.940Z,64.07
2023-01-02T05:59:35.942Z,67.97
2023-01-02T06:02:04.006Z,71.00
2023-01-02T06:04:31.799Z,55.03
2023-01-02T06:06:59.323Z,45.17
2023-01-02T06:09:26.815Z,41.40
2023-01-02T06:11:55.723Z,29.57
2023-01-02T06:14:24.048Z,30.33
2023-01-02T06:16:51.598Z,37.77
2023-01-02T06:19:19.081Z,54.00
2023-01-02T06:21:46.582Z,60.63
2023-01-02T06:24:14.044Z,65.57
2023-01-02T06:26:41.525Z,62.47
2023-01-02T06:29:11.011Z,69.73
2023-01-02T06:31:40.037Z,66.50
2023-01-02T06:34:08.155Z,62.43
2023-01-02T06:36:35.742Z,59.53
2023-01-02T06:39:03.574Z,58.47
2023-01-02T06:41:31.564Z,65.37
2023-01-02T06:43:59.060Z,61.23
2023-01-02T06:46:27.904Z,63.53
2023-01-02T06:48:55.403Z,65.83
2023-01-02T06:51:24.242Z,68.60
2023-01-02T06:53:52.069Z,64.47
2023-01-02T06:56:21.144Z,63.47
2023-01-02T06:58:49.276Z,63.00
2023-01-02T07:01:18.959Z,68.37
2023-01-02T07:03:47.938Z,72.53
2023-01-02T07:06:17.421Z,70.07
2023-01-02T07:08:45.268Z,78.63
2023-01-02T07:11:15.374Z,71.60
2023-01-02T07:13:44.150Z,74.57
2023-01-02T07:16:13.505Z,65.97
2023-01-02T07:18:41.198Z,66.40
2023-01-02T07:21:11.837Z,60.27
2023-01-02T07:23:39.738Z,60.63
2023-01-02T07:26:08.137Z,63.67
2023-01-02T07:28:36.594Z,55.53
2023-01-02T07:31:08.042Z,55.63
2023-01-02T07:33:36.286Z,49.10
2023-01-02T07:36:06.291Z,50.90
2023-01-02T07:38:35.966Z,54.57
2023-01-02T07:41:03.446Z,53.33
2023-01-02T07:43:31.104Z,58.43
2023-01-02T07:46:03.766Z,60.67
2023-01-02T07:48:31.481Z,62.27
2023-01-02T07:51:01.612Z,57.67
2023-01-02T07:53:29.227Z,54.53
2023-01-02T07:55:59.856Z,52.90
2023-01-02T07:58:27.965Z,50.00
2023-01-02T08:00:59.884Z,50.90
2023-01-02T08:03:32.064Z,63.13
2023-01-02T08:06:03.987Z,55.53
2023-01-02T08:08:31.459Z,56.03
2023-01-02T08:11:00.298Z,73.83
2023-01-02T08:13:27.767Z,67.23
2023-01-02T08:15:55.255Z,59.03
2023-01-02T08:18:22.735Z,51.97
2023-01-02T08:20:50.221Z,55.03
2023-01-02T08:23:17.703Z,52.00
2023-01-02T08:25:45.168Z,55.77
2023-01-02T08:28:13.995Z,55.70
2023-01-02T08:30:41.603Z,44.90
2023-01-02T08:33:09.143Z,27.53
2023-01-02T08:35:38.951Z,26.97
2023-01-02T08:38:06.821Z,27.80
2023-01-02T08:40:34.377Z,27.40
2023-01-02T08:43:01.870Z,28.10
2023-01-02T08:45:31.043Z,28.80
2023-01-02T08:47:58.538Z,30.37
2023-01-02T08:50:26.222Z,33.27
2023-01-02T08:52:53.770Z,33.08
2023-01-02T08:55:21.258Z,28.02
2023-01-02T08:57:48.721Z,50.33
2023-01-02T09:00:16.863Z,75.47
2023-01-02T09:02:45.759Z,25.55
2023-01-02T09:05:13.355Z,24.58
2023-01-02T09:07:40.851Z,12.68
2023-01-02T09:10:09.338Z,12.63
2023-01-02T09:12:36.875Z,14.27
2023-01-02T09:15:04.972Z,17.35
2023-01-02T09:17:32.447Z,20.25
2023-01-02T09:20:01.255Z,15.30
2023-01-02T09:22:28.719Z,24.05
2023-01-02T09:24:56.219Z,34.42
2023-01-02T09:27:23.805Z,36.35
2023-01-02T09:29:53.109Z,30.52
2023-01-02T09:32:20.978Z,39.22
2023-01-02T09:34:50.814Z,39.85
2023-01-02T09:37:19.633Z,32.85
2023-01-02T09:39:47.402Z,38.10
2023-01-02T09:42:18.025Z,20.58
2023-01-02T09:44:49.211Z,22.38
2023-01-02T09:47:21.001Z,37.30
2023-01-02T09:49:50.668Z,42.70
2023-01-02T09:52:24.043Z,38.47
2023-01-02T09:54:51.648Z,40.45
2023-01-02T09:57:40.776Z,38.10
2023-01-02T10:00:15.799Z,34.92
2023-01-02T10:03:07.950Z,13.38
2023-01-02T10:05:57.638Z,11.45
2023-01-02T10:08:33.588Z,10.38
2023-01-02T10:11:11.388Z,12.48
2023-01-02T10:16:36.759Z,15.98
2023-01-02T10:19:08.287Z,14.88
2023-01-02T10:21:38.501Z,13.95
2023-01-02T10:24:12.761Z,9.32
2023-01-02T10:26:46.616Z,12.73
2023-01-02T10:29:21.117Z,22.88
2023-01-02T10:31:53.978Z,24.60
2023-01-02T10:34:24.356Z,22.90
2023-01-02T10:36:52.765Z,25.73
2023-01-02T10:39:23.522Z,26.05
2023-01-02T10:41:54.999Z,22.85
2023-01-02T10:44:27.928Z,23.17
2023-01-02T10:46:56.524Z,27.27
2023-01-02T10:49:26.747Z,26.83
2023-01-02T10:52:04.028Z,24.42
2023-01-02T10:54:55.040Z,21.35
2023-01-02T10:57:34.888Z,19.77
2023-01-02T11:00:04.246Z,19.08
2023-01-02T11:02:37.878Z,20.00
2023-01-02T11:05:07.313Z,20.85
2023-01-02T11:07:38.917Z,20.08
2023-01-02T11:10:23.215Z,18.00
2023-01-02T11:12:50.734Z,19.65
2023-01-02T11:15:26.153Z,17.17
2023-01-02T11:17:54.315Z,17.02
2023-01-02T11:20:28.736Z,18.50
2023-01-02T11:22:58.917Z,17.90
2023-01-02T11:25:29.962Z,18.35
2023-01-02T11:27:59.303Z,23.35
2023-01-02T11:30:33.330Z,23.83
2023-01-02T11:33:08.179Z,26.00
2023-01-02T11:35:39.662Z,28.23
2023-01-02T11:38:15.399Z,25.38
2023-01-02T11:40:55.610Z,27.30
2023-01-02T11:43:45.711Z,26.88
2023-01-02T11:46:23.505Z,25.88
2023-01-02T11:48:53.792Z,27.05
2023-01-02T11:51:22.631Z,23.60
2023-01-02T11:53:53.599Z,22.42
2023-01-02T11:56:27.984Z,13.95
2023-01-02T11:59:02.120Z,16.35
2023-01-02T12:01:38.117Z,10.85
2023-01-02T12:04:06.188Z,10.45
2023-01-02T12:06:47.243Z,12.23
2023-01-02T12:09:20.890Z,15.52
2023-01-02T12:12:09.404Z,15.43
2023-01-02T12:14:55.012Z,17.65
2023-01-02T12:17:31.085Z,16.67
2023-01-02T12:20:18.061Z,14.48
2023-01-02T12:23:14.822Z,14.70
2023-01-02T12:25:52.432Z,13.60
2023-01-02T12:28:45.080Z,10.27
2023-01-02T12:31:24.553Z,11.85
2023-01-02T12:34:00.706Z,8.90
2023-01-02T12:36:44.950Z,11.75
2023-01-02T12:39:50.116Z,9.98
2023-01-02T12:42:31.055Z,10.10
2023-01-02T12:45:00.307Z,12.02
2023-01-02T12:47:56.589Z,11.38
2023-01-02T12:50:49.176Z,14.68
2023-01-02T12:53:35.563Z,16.77
2023-01-02T12:56:11.496Z,13.07
2023-01-02T12:58:51.755Z,17.27
2023-01-02T13:01:26.796Z,17.08
2023-01-02T13:04:03.393Z,16.73
2023-01-02T13:06:45.769Z,18.33
2023-01-02T13:09:23.140Z,18.95
2023-01-02T13:11:57.553Z,16.90
2023-01-02T13:14:32.704Z,13.13
2023-01-02T13:17:13.685Z,9.95
2023-01-02T13:19:46.646Z,10.93
2023-01-02T13:22:27.886Z,11.18
2023-01-02T13:24:57.430Z,11.90
2023-01-02T13:27:25.492Z,11.82
2023-01-02T13:29:54.184Z,14.63
2023-01-02T13:32:29.669Z,16.05
2023-01-02T13:35:01.840Z,16.23
2023-01-02T13:37:30.724Z,15.48
2023-01-02T13:40:00.768Z,14.18
2023-01-02T13:42:49.579Z,20.02
2023-01-02T13:45:21.595Z,16.73
2023-01-02T13:47:55.540Z,16.73
2023-01-02T13:50:28.244Z,16.27
2023-01-02T13:53:27.873Z,23.65
2023-01-02T13:56:05.640Z,11.23
2023-01-02T13:58:48.168Z,15.25
2023-01-02T14:01:34.541Z,21.67
2023-01-02T14:04:29.485Z,25.27
2023-01-02T14:07:27.195Z,28.13
2023-01-02T14:10:08.116Z,22.20
2023-01-02T14:12:43.796Z,15.63
2023-01-02T14:15:18.929Z,13.90
2023-01-02T14:17:54.858Z,13.23
2023-01-02T14:20:27.251Z,14.20
2023-01-02T14:22:57.380Z,14.38
2023-01-02T14:25:26.035Z,16.45
2023-01-02T14:27:56.671Z,14.95
2023-01-02T14:30:31.251Z,17.02
2023-01-02T14:33:00.385Z,17.17
2023-01-02T14:35:33.209Z,25.30
2023-01-02T14:38:11.257Z,29.55
2023-01-02T14:40:40.689Z,29.83
2023-01-02T14:43:30.714Z,23.48
2023-01-02T14:46:02.762Z,16.00
2023-01-02T14:48:36.284Z,17.30
2023-01-02T14:51:09.993Z,16.53
2023-01-02T14:53:42.394Z,14.75
2023-01-02T14:56:15.682Z,12.67
2023-01-02T14:58:44.667Z,11.90
2023-01-02T15:01:16.419Z,12.03
2023-01-02T15:04:14.604Z,14.90
2023-01-02T15:06:46.458Z,16.43
2023-01-02T15:09:30.520Z,13.00
2023-01-02T15:12:16.781Z,12.00
2023-01-02T15:14:44.508Z,12.53
2023-01-02T15:17:14.639Z,13.00
2023-01-02T15:19:43.880Z,12.07
2023-01-02T15:22:14.673Z,11.73
2023-01-02T15:24:48.866Z,10.57
2023-01-02T15:27:23.909Z,15.20
2023-01-02T15:29:53.657Z,19.37
2023-01-02T15:32:23.526Z,20.17
2023-01-02T15:34:51.622Z,18.75
2023-01-02T15:37:23.536Z,18.63
2023-01-02T15:39:53.250Z,15.10
2023-01-02T15:42:56.325Z,17.93
2023-01-02T15:45:23.826Z,16.73
2023-01-02T15:47:52.685Z,17.80
2023-01-02T15:50:23.279Z,17.13
2023-01-02T15:52:58.093Z,19.83
2023-01-02T15:55:26.345Z,21.57
2023-01-02T15:57:55.432Z,18.93
2023-01-02T16:00:35.964Z,22.13
2023-01-02T16:03:04.325Z,17.27
2023-01-02T16:05:46.169Z,18.20
2023-01-02T16:08:20.714Z,21.00
2023-01-02T16:10:51.305Z,21.23
2023-01-02T16:13:40.471Z,18.50
2023-01-02T16:16:15.890Z,18.20
2023-01-02T16:18:47.688Z,15.23
2023-01-02T16:21:16.892Z,14.73
2023-01-02T16:23:51.153Z,13.80
2023-01-02T16:26:20.805Z,13.77
2023-01-02T16:28:51.237Z,12.90
2023-01-02T16:31:20.904Z,12.37
2023-01-02T16:33:48.508Z,13.40
2023-01-02T16:36:22.473Z,11.77
2023-01-02T16:38:55.690Z,12.60
2023-01-02T16:42:15.551Z,12.27
2023-01-02T16:44:43.074Z,16.93
2023-01-02T16:47:11.257Z,16.93
2023-01-02T16:49:39.174Z,16.43
2023-01-02T16:52:06.767Z,27.80
2023-01-02T16:54:35.587Z,18.63
2023-01-02T16:57:06.434Z,28.63
2023-01-02T16:59:35.909Z,79.43
2023-01-02T17:02:03.569Z,21.00
2023-01-02T17:04:31.506Z,20.10
2023-01-02T17:06:59.001Z,18.03
2023-01-02T17:09:26.474Z,20.00
2023-01-02T17:12:01.095Z,17.33
2023-01-02T17:14:29.071Z,17.03
2023-01-02T17:16:56.775Z,20.87
2023-01-02T17:19:24.692Z,18.23
2023-01-02T17:21:52.570Z,20.27
2023-01-02T17:24:20.137Z,27.00
2023-01-02T17:26:48.049Z,17.53
2023-01-02T17:29:16.923Z,18.33
2023-01-02T17:31:44.484Z,19.20
2023-01-02T17:34:11.971Z,18.10
2023-01-02T17:36:39.452Z,21.53
2023-01-02T17:39:07.009Z,15.17
2023-01-02T17:41:34.497Z,15.00
2023-01-02T17:44:03.748Z,15.50
2023-01-02T17:49:21.923Z,16.80
2023-01-02T17:51:49.508Z,18.37
2023-01-02T17:54:17.330Z,18.03
2023-01-02T17:56:45.178Z,16.83
2023-01-02T17:59:13.923Z,15.07
2023-01-02T18:01:42.852Z,17.13
2023-01-02T18:04:10.473Z,16.07
2023-01-02T18:06:38.023Z,16.50
2023-01-02T18:09:05.926Z,17.67
2023-01-02T18:11:34.569Z,15.50
2023-01-02T18:14:04.195Z,18.67
2023-01-02T18:16:35.390Z,30.80
2023-01-02T18:19:07.651Z,108.53
2023-01-02T18:21:35.551Z,19.27
2023-01-02T18:24:08.723Z,21.23
2023-01-02T18:26:36.216Z,63.17
2023-01-02T18:29:09.676Z,110.73
2023-01-02T18:31:40.670Z,68.47
2023-01-02T18:34:46.359Z,43.87
2023-01-02T18:37:15.745Z,54.23
2023-01-02T18:39:43.896Z,35.90
2023-01-02T18:42:13.639Z,21.07
2023-01-02T18:44:42.694Z,20.67
2023-01-02T18:47:24.869Z,29.60
2023-01-02T18:49:54.955Z,53.93
2023-01-02T18:52:28.263Z,34.83
2023-01-02T18:55:00.348Z,59.63
2023-01-02T18:57:32.697Z,90.30
2023-01-02T19:00:14.047Z,26.70
2023-01-02T19:02:53.215Z,23.40
2023-01-02T19:05:25.455Z,111.43
2023-01-02T19:07:55.139Z,85.17
2023-01-02T19:10:36.918Z,19.77
2023-01-02T19:13:07.937Z,15.80
2023-01-02T19:15:42.038Z,16.70
2023-01-02T19:18:21.606Z,20.37
2023-01-02T19:20:55.134Z,12.37
2023-01-02T19:23:28.210Z,16.73
2023-01-02T19:25:56.830Z,13.83
2023-01-02T19:28:28.296Z,10.83
2023-01-02T19:30:56.604Z,11.03
2023-01-02T19:33:39.117Z,10.43
2023-01-02T19:36:16.668Z,9.23
2023-01-02T19:38:45.730Z,12.70
2023-01-02T19:41:13.451Z,9.93
2023-01-02T19:43:40.921Z,9.77
2023-01-02T19:46:08.650Z,9.37
2023-01-02T19:48:36.173Z,13.00
2023-01-02T19:51:03.654Z,14.50
2023-01-02T19:53:32.502Z,17.60
2023-01-02T19:56:00.006Z,17.13
2023-01-02T19:58:27.500Z,11.00
2023-01-02T20:00:54.999Z,10.23
2023-01-02T20:03:22.595Z,11.90
2023-01-02T20:05:50.226Z,21.00
2023-01-02T20:08:17.723Z,22.90
2023-01-02T20:10:46.564Z,16.97
2023-01-02T20:13:14.041Z,13.20
2023-01-02T20:15:41.537Z,21.07
2023-01-02T20:18:09.298Z,19.17
2023-01-02T20:20:36.889Z,12.77
2023-01-02T20:23:04.420Z,15.17
2023-01-02T20:25:32.041Z,12.67
2023-01-02T20:28:03.194Z,9.97
2023-01-02T20:30:30.739Z,11.50
2023-01-02T20:32:58.215Z,10.30
2023-01-02T20:35:25.716Z,13.63
2023-01-02T20:37:53.227Z,14.70
2023-01-02T20:40:20.753Z,16.63
2023-01-02T20:42:48.321Z,12.23
2023-01-02T20:45:17.157Z,10.00
2023-01-02T20:47:44.670Z,10.57
2023-01-02T20:50:12.269Z,10.43
2023-01-02T20:52:39.770Z,10.30
2023-01-02T20:55:08.133Z,10.90
2023-01-02T20:57:35.721Z,11.00
2023-01-02T21:00:04.909Z,11.07
2023-01-02T21:02:33.872Z,9.97
2023-01-02T21:05:01.691Z,9.50
2023-01-02T21:07:29.202Z,9.40
2023-01-02T21:09:58.969Z,10.43
2023-01-02T21:12:44.223Z,10.70
2023-01-02T21:15:31.838Z,12.87
2023-01-02T21:18:00.773Z,17.90
2023-01-02T21:20:28.311Z,18.37
2023-01-02T21:22:56.522Z,27.07
2023-01-02T21:25:24.116Z,8.80
2023-01-02T21:27:51.641Z,6.37
2023-01-02T21:30:19.235Z,6.10
2023-01-02T21:32:46.776Z,9.60
2023-01-02T21:35:15.621Z,9.18
2023-01-02T21:37:43.144Z,10.95
2023-01-02T21:40:11.284Z,19.52
2023-01-02T21:42:44.494Z,5.82
2023-01-02T21:45:12.494Z,5.45
2023-01-02T21:47:39.978Z,4.63
2023-01-02T21:50:07.962Z,4.38
2023-01-02T21:52:36.978Z,5.10
2023-01-02T21:55:04.913Z,6.40
2023-01-02T21:58:11.062Z,5.28
2023-01-02T22:00:22.552Z,5.20
2023-01-02T22:02:50.269Z,5.70
2023-01-02T22:05:19.094Z,5.57
2023-01-02T22:07:48.131Z,4.72
2023-01-02T22:10:17.050Z,4.75
2023-01-02T22:12:44.665Z,3.60
2023-01-02T22:15:13.335Z,3.30
2023-01-02T22:17:41.403Z,2.80
2023-01-02T22:20:10.228Z,3.85
2023-01-02T22:22:37.872Z,4.10
2023-01-02T22:25:08.047Z,4.85
2023-01-02T22:27:35.598Z,5.30
2023-01-02T22:30:23.342Z,4.88
2023-01-02T22:32:51.584Z,6.18
2023-01-02T22:35:19.370Z,5.15
2023-01-02T22:37:46.858Z,6.05
2023-01-02T22:40:16.074Z,5.45
2023-01-02T22:43:04.815Z,5.78
2023-01-02T22:45:36.933Z,5.18
2023-01-02T22:48:08.470Z,5.60
2023-01-02T22:50:44.418Z,5.45
2023-01-02T22:53:19.328Z,4.78
2023-01-02T22:55:48.465Z,5.70
2023-01-02T22:58:16.043Z,5.35
2023-01-02T23:00:43.657Z,5.40
2023-01-02T23:03:13.455Z,5.63
2023-01-02T23:05:41.285Z,4.97
2023-01-02T23:08:09.186Z,4.85
2023-01-02T23:10:36.681Z,4.78
2023-01-02T23:13:05.725Z,6.00
2023-01-02T23:15:33.233Z,5.63
2023-01-02T23:18:18.643Z,5.47
2023-01-02T23:20:46.125Z,5.78
2023-01-02T23:23:13.651Z,6.15
2023-01-02T23:25:43.975Z,5.20
2023-01-02T23:28:31.888Z,5.75
2023-01-02T23:31:00.257Z,5.75
2023-01-02T23:33:27.910Z,5.40
2023-01-02T23:35:55.395Z,5.47
2023-01-02T23:38:22.972Z,4.28
2023-01-02T23:40:50.572Z,4.43
2023-01-02T23:43:19.423Z,5.25
2023-01-02T23:45:46.966Z,5.35
2023-01-02T23:48:14.511Z,5.55
2023-01-02T23:50:46.046Z,4.70
2023-01-02T23:53:13.924Z,5.43
2023-01-02T23:55:41.664Z,5.65
2023-01-02T23:58:09.965Z,5.15
